Time;durP1;ratioP1;P1;durP2;ratioP2;P2;SDS_P1;SDS_P2;PMS_P1;PMS_P2;Temp;Humidity;BMP_temperature;BMP_pressure;BME280_temperature;BME280_humidity;BME280_pressure;Samples;Min_cycle;Max_cycle;Signal;HPM_P1;HPM_P2
2023/07/19 00:01:36;;;;;;;2.40;2.20;;;25.70;45.90;;;;;;222544;1268;24276;-45
2023/07/19 00:06:40;;;;;;;4.20;2.20;;;25.70;45.50;;;;;;222280;1269;25348;-47
2023/07/19 00:11:44;;;;;;;5.40;2.20;;;25.70;45.50;;;;;;222363;1267;22623;-47
2023/07/19 00:16:49;;;;;;;3.00;2.40;;;25.70;45.70;;;;;;222207;1266;22519;-45
2023/07/19 00:21:53;;;;;;;2.40;2.20;;;25.70;45.80;;;;;;222539;1263;25317;-46
2023/07/19 00:26:58;;;;;;;3.80;1.90;;;25.70;46.00;;;;;;222442;1264;24364;-45
2023/07/19 00:32:02;;;;;;;2.50;2.30;;;25.70;46.00;;;;;;222551;1254;22514;-46
2023/07/19 00:37:06;;;;;;;2.60;2.30;;;25.70;46.00;;;;;;222635;1266;22620;-46
2023/07/19 00:42:10;;;;;;;2.70;2.40;;;25.60;46.00;;;;;;222167;1265;22652;-45
2023/07/19 00:47:16;;;;;;;2.40;2.20;;;25.60;46.10;;;;;;222341;1266;22513;-44
2023/07/19 00:52:21;;;;;;;3.10;2.10;;;25.60;46.00;;;;;;222423;1264;24202;-45
2023/07/19 00:57:25;;;;;;;2.30;2.10;;;25.60;45.90;;;;;;222427;1266;24375;-47
2023/07/19 01:02:29;;;;;;;2.30;2.10;;;25.60;45.90;;;;;;222169;1263;22515;-45
2023/07/19 01:07:37;;;;;;;3.70;1.80;;;25.50;45.30;;;;;;222457;1244;25328;-46
2023/07/19 01:12:43;;;;;;;2.90;2.30;;;25.50;45.80;;;;;;222798;1267;24046;-48
2023/07/19 01:17:46;;;;;;;3.00;1.90;;;25.50;45.80;;;;;;222817;1267;24167;-47
2023/07/19 01:22:51;;;;;;;2.20;2.00;;;25.50;45.90;;;;;;222286;1261;22601;-47
2023/07/19 01:27:55;;;;;;;2.70;2.50;;;25.50;46.50;;;;;;222469;1254;22935;-47
2023/07/19 01:33:01;;;;;;;2.20;2.00;;;25.50;45.90;;;;;;222559;1251;22511;-46
2023/07/19 01:38:05;;;;;;;2.30;2.10;;;25.40;46.30;;;;;;222525;1268;23878;-47
2023/07/19 01:43:10;;;;;;;2.30;1.90;;;25.40;45.90;;;;;;222261;1263;24204;-46
2023/07/19 01:48:16;;;;;;;2.30;2.10;;;25.40;46.00;;;;;;222544;1268;22620;-46
2023/07/19 01:53:20;;;;;;;3.10;2.30;;;25.40;46.40;;;;;;222372;1267;22718;-45
2023/07/19 01:58:24;;;;;;;2.40;2.10;;;25.30;46.40;;;;;;222441;1263;22523;-46
2023/07/19 02:03:28;;;;;;;3.30;2.20;;;25.30;46.10;;;;;;222486;1263;25366;-46
2023/07/19 02:08:32;;;;;;;2.00;1.90;;;25.40;46.20;;;;;;222554;1257;22652;-46
2023/07/19 02:13:36;;;;;;;2.10;1.90;;;25.30;46.50;;;;;;222518;1267;209597;-45
2023/07/19 02:18:40;;;;;;;2.40;2.10;;;25.30;46.10;;;;;;222352;1260;22518;-46
2023/07/19 02:23:45;;;;;;;2.80;2.10;;;25.30;46.20;;;;;;222497;1257;24180;-49
2023/07/19 02:28:51;;;;;;;2.10;1.80;;;25.20;46.20;;;;;;222573;1268;25540;-46
2023/07/19 02:33:54;;;;;;;2.20;2.00;;;25.20;46.20;;;;;;222669;1266;24331;-45
2023/07/19 02:38:59;;;;;;;2.90;1.80;;;25.20;46.20;;;;;;222569;1260;25293;-47
2023/07/19 02:44:03;;;;;;;2.40;2.00;;;25.20;46.20;;;;;;222606;1253;22676;-44
2023/07/19 02:49:07;;;;;;;3.20;1.90;;;25.20;46.20;;;;;;222358;1264;22649;-45
2023/07/19 02:54:11;;;;;;;1.70;1.60;;;25.10;46.20;;;;;;222417;1266;24675;-47
2023/07/19 02:59:15;;;;;;;1.60;1.50;;;25.10;46.30;;;;;;222681;1260;24358;-48
2023/07/19 03:04:20;;;;;;;1.90;1.80;;;25.10;46.20;;;;;;222704;1260;22616;-46
2023/07/19 03:09:24;;;;;;;2.50;1.80;;;25.10;46.60;;;;;;222374;1261;22504;-45
2023/07/19 03:14:28;;;;;;;2.20;1.80;;;25.00;46.30;;;;;;222759;1266;22656;-45
2023/07/19 03:19:33;;;;;;;1.70;1.60;;;25.10;46.30;;;;;;222458;1245;22505;-47
2023/07/19 03:24:37;;;;;;;2.50;1.80;;;25.00;46.20;;;;;;222722;1260;22524;-45
2023/07/19 03:29:41;;;;;;;2.00;1.90;;;25.00;46.60;;;;;;222485;1260;22813;-46
2023/07/19 03:34:45;;;;;;;2.10;1.90;;;25.00;46.20;;;;;;222573;1266;23950;-47
2023/07/19 03:39:50;;;;;;;1.80;1.70;;;25.00;46.20;;;;;;222653;1257;22504;-45
2023/07/19 03:44:55;;;;;;;1.90;1.80;;;25.00;46.20;;;;;;222708;1263;22551;-45
2023/07/19 03:50:01;;;;;;;2.40;1.80;;;25.00;46.30;;;;;;222587;1267;24163;-48
2023/07/19 03:55:06;;;;;;;1.90;1.80;;;24.90;46.20;;;;;;222665;1260;25229;-46
2023/07/19 04:00:12;;;;;;;2.20;1.80;;;24.90;46.30;;;;;;222598;1268;22558;-47
2023/07/19 04:05:23;;;;;;;2.30;1.70;;;24.90;46.70;;;;;;222647;1263;22595;-47
2023/07/19 04:10:27;;;;;;;1.90;1.70;;;24.90;46.80;;;;;;222128;1266;22928;-44
2023/07/19 04:15:33;;;;;;;1.70;1.40;;;24.80;45.90;;;;;;222154;1261;22647;-44
2023/07/19 04:20:37;;;;;;;2.60;1.80;;;24.90;46.60;;;;;;222538;1269;22643;-46
2023/07/19 04:25:42;;;;;;;2.70;1.70;;;24.90;46.60;;;;;;222565;1265;22905;-45
2023/07/19 04:30:47;;;;;;;1.80;1.70;;;24.90;46.80;;;;;;222385;1265;22638;-46
2023/07/19 04:35:54;;;;;;;1.70;1.50;;;24.90;46.80;;;;;;222250;1268;22681;-45
2023/07/19 04:41:02;;;;;;;2.20;2.00;;;24.90;47.40;;;;;;222443;1260;25692;-44
2023/07/19 04:46:08;;;;;;;2.40;1.70;;;24.90;47.30;;;;;;222354;1266;22620;-45
2023/07/19 04:51:12;;;;;;;1.70;1.60;;;24.90;47.80;;;;;;222286;1269;22515;-49
2023/07/19 04:56:16;;;;;;;2.60;1.80;;;24.90;47.50;;;;;;222394;1261;25163;-46
2023/07/19 05:01:21;;;;;;;1.70;1.60;;;24.90;48.10;;;;;;222461;1262;22519;-46
2023/07/19 05:06:25;;;;;;;2.20;1.90;;;25.00;47.80;;;;;;222243;1261;22624;-46
2023/07/19 05:11:30;;;;;;;4.00;1.40;;;25.00;48.30;;;;;;222093;1269;22494;-45
2023/07/19 05:16:35;;;;;;;2.00;1.30;;;25.00;47.80;;;;;;222374;1268;24297;-47
2023/07/19 05:21:39;;;;;;;3.10;1.80;;;25.00;48.30;;;;;;222302;1267;22505;-46
2023/07/19 05:26:44;;;;;;;1.90;1.80;;;25.00;48.50;;;;;;222171;1259;22719;-46
2023/07/19 05:31:48;;;;;;;2.60;1.60;;;25.00;48.90;;;;;;222402;1266;23639;-43
2023/07/19 05:36:53;;;;;;;2.50;1.80;;;25.00;48.50;;;;;;222636;1267;24083;-49
2023/07/19 05:41:57;;;;;;;1.90;1.80;;;25.10;48.70;;;;;;222815;1266;24250;-46
2023/07/19 05:47:01;;;;;;;1.90;1.70;;;25.10;48.80;;;;;;222412;1266;24128;-45
2023/07/19 05:52:07;;;;;;;1.80;1.60;;;25.10;48.60;;;;;;222527;1269;22518;-44
2023/07/19 05:57:11;;;;;;;2.00;1.50;;;25.10;48.60;;;;;;222295;1267;25328;-46
2023/07/19 06:02:15;;;;;;;2.10;1.90;;;25.10;48.50;;;;;;222483;1269;24631;-49
2023/07/19 06:07:20;;;;;;;1.60;1.50;;;25.10;48.30;;;;;;222359;1263;22610;-45
2023/07/19 06:12:24;;;;;;;1.90;1.60;;;25.20;48.30;;;;;;222870;1265;24212;-46
2023/07/19 06:17:29;;;;;;;1.50;1.40;;;25.20;48.30;;;;;;222513;1266;24321;-44
2023/07/19 06:22:33;;;;;;;1.80;1.70;;;25.30;48.20;;;;;;222762;1268;24080;-49
2023/07/19 06:27:38;;;;;;;1.80;1.70;;;25.30;48.30;;;;;;222789;1266;22515;-44
2023/07/19 06:32:42;;;;;;;1.90;1.80;;;25.30;48.60;;;;;;222859;1268;22508;-45
2023/07/19 06:37:47;;;;;;;2.10;1.90;;;25.30;48.20;;;;;;222449;1268;24190;-49
2023/07/19 06:42:51;;;;;;;2.60;1.70;;;25.30;48.20;;;;;;222601;1263;22567;-44
2023/07/19 06:47:55;;;;;;;3.30;1.90;;;25.30;48.20;;;;;;222679;1267;23110;-47
2023/07/19 06:53:02;;;;;;;2.80;2.00;;;25.30;48.20;;;;;;222436;1267;22518;-44
2023/07/19 06:58:07;;;;;;;2.20;1.80;;;25.30;48.20;;;;;;222614;1267;22640;-47
2023/07/19 07:03:11;;;;;;;1.90;1.80;;;25.30;48.30;;;;;;222405;1268;24253;-48
2023/07/19 07:08:16;;;;;;;3.30;2.20;;;25.40;48.20;;;;;;222508;1267;22512;-46
2023/07/19 07:13:20;;;;;;;4.10;3.30;;;25.40;48.20;;;;;;222533;1267;23014;-47
2023/07/19 07:18:24;;;;;;;2.20;2.00;;;25.40;48.10;;;;;;222370;1261;22960;-47
2023/07/19 07:23:28;;;;;;;4.00;1.80;;;25.40;48.30;;;;;;222614;1267;26477;-45
2023/07/19 07:28:33;;;;;;;3.90;1.90;;;25.40;47.90;;;;;;222544;1261;23662;-47
2023/07/19 07:33:37;;;;;;;2.20;1.80;;;25.40;47.80;;;;;;222376;1264;22679;-46
2023/07/19 07:38:42;;;;;;;2.40;1.60;;;25.40;48.10;;;;;;222787;1267;22515;-46
2023/07/19 07:43:46;;;;;;;2.40;2.00;;;25.40;48.30;;;;;;222771;1253;25232;-47
2023/07/19 07:48:50;;;;;;;4.40;1.90;;;25.50;48.00;;;;;;222834;1263;22511;-46
2023/07/19 07:53:55;;;;;;;2.50;1.70;;;25.50;47.90;;;;;;222664;1254;23013;-46
2023/07/19 07:58:59;;;;;;;6.90;2.00;;;25.50;48.10;;;;;;222798;1254;25296;-50
2023/07/19 08:04:06;;;;;;;6.40;2.10;;;25.40;48.30;;;;;;222388;1254;24311;-44
2023/07/19 08:09:12;;;;;;;3.00;2.40;;;25.50;48.20;;;;;;222644;1263;24311;-43
2023/07/19 08:14:19;;;;;;;5.30;2.20;;;25.40;48.50;;;;;;222445;1261;24222;-42
2023/07/19 08:19:23;;;;;;;3.30;2.20;;;25.40;48.50;;;;;;222483;1254;22533;-43
2023/07/19 08:24:28;;;;;;;5.40;2.60;;;25.40;48.60;;;;;;222638;1267;25402;-49
2023/07/19 08:29:32;;;;;;;8.10;2.20;;;25.50;48.20;;;;;;222583;1257;24657;-43
2023/07/19 08:34:36;;;;;;;3.10;2.30;;;25.40;48.60;;;;;;222635;1260;25351;-44
2023/07/19 08:39:41;;;;;;;3.20;2.10;;;25.40;48.10;;;;;;222522;1258;24342;-42
2023/07/19 08:44:48;;;;;;;7.30;2.50;;;25.50;47.90;;;;;;222954;1253;26589;-46
2023/07/19 08:49:53;;;;;;;2.60;2.40;;;25.50;47.80;;;;;;222577;1266;22610;-44
2023/07/19 08:54:58;;;;;;;5.60;2.40;;;25.40;47.60;;;;;;222722;1254;22514;-43
2023/07/19 09:00:04;;;;;;;4.30;2.10;;;25.50;47.50;;;;;;222402;1254;24358;-43
2023/07/19 09:05:10;;;;;;;3.60;2.50;;;25.50;47.40;;;;;;222405;1263;22548;-42
2023/07/19 09:10:16;;;;;;;3.60;2.50;;;25.60;46.80;;;;;;222482;1251;23171;-42
2023/07/19 09:15:21;;;;;;;4.60;2.60;;;25.60;47.60;;;;;;222597;1254;25591;-47
2023/07/19 09:20:27;;;;;;;3.90;2.10;;;25.70;47.40;;;;;;222816;1260;22505;-42
2023/07/19 09:25:33;;;;;;;4.50;2.60;;;25.80;47.20;;;;;;222646;1267;22537;-43
2023/07/19 09:31:09;;;;;;;5.40;2.40;;;25.90;47.70;;;;;;222526;1254;22673;-43
2023/07/19 09:36:29;;;;;;;2.80;2.20;;;26.00;47.30;;;;;;222403;1254;24203;-42
2023/07/19 09:41:34;;;;;;;3.90;2.70;;;26.00;47.30;;;;;;222690;1253;22510;-48
2023/07/19 09:46:39;;;;;;;2.60;2.20;;;26.00;47.60;;;;;;222554;1257;26651;-42
2023/07/19 09:51:43;;;;;;;6.10;2.40;;;26.10;47.40;;;;;;222636;1250;22587;-43
2023/07/19 09:56:47;;;;;;;5.50;2.50;;;26.10;47.30;;;;;;222492;1251;22530;-47
2023/07/19 10:01:51;;;;;;;2.80;2.50;;;26.10;47.70;;;;;;222473;1261;22596;-45
2023/07/19 10:07:08;;;;;;;4.90;2.50;;;26.20;47.60;;;;;;222558;1251;22678;-43
2023/07/19 10:12:18;;;;;;;3.50;2.70;;;26.20;47.60;;;;;;222667;1251;22652;-41
2023/07/19 10:17:23;;;;;;;5.10;2.80;;;26.20;47.50;;;;;;222416;1260;22547;-46
2023/07/19 10:22:46;;;;;;;6.00;2.80;;;26.20;47.50;;;;;;222842;1251;24226;-42
2023/07/19 10:28:08;;;;;;;4.20;2.00;;;26.30;47.50;;;;;;222735;1254;24227;-42
2023/07/19 10:33:13;;;;;;;4.70;2.60;;;26.40;47.50;;;;;;223031;1251;24363;-44
2023/07/19 10:38:20;;;;;;;3.20;2.50;;;26.40;47.40;;;;;;222584;1250;24158;-42
2023/07/19 10:43:26;;;;;;;3.00;2.40;;;26.50;47.20;;;;;;222800;1268;24068;-43
2023/07/19 10:48:50;;;;;;;2.80;2.30;;;26.60;46.90;;;;;;222636;1260;24212;-43
2023/07/19 10:53:58;;;;;;;2.40;2.00;;;26.70;46.90;;;;;;222608;1260;24470;-42
2023/07/19 10:59:03;;;;;;;3.60;2.30;;;26.70;47.00;;;;;;222663;1260;23910;-41
2023/07/19 11:04:08;;;;;;;2.40;1.90;;;26.80;47.00;;;;;;222471;1260;22502;-41
2023/07/19 11:09:12;;;;;;;3.70;2.30;;;26.80;46.90;;;;;;222719;1251;26606;-43
2023/07/19 11:14:28;;;;;;;2.60;2.40;;;26.80;46.80;;;;;;222544;1263;24332;-43
2023/07/19 11:19:38;;;;;;;2.80;2.50;;;26.90;46.70;;;;;;222765;1251;22538;-41
2023/07/19 11:24:48;;;;;;;6.20;2.50;;;26.90;46.60;;;;;;222382;1260;22652;-41
2023/07/19 11:29:54;;;;;;;5.30;2.70;;;26.90;46.80;;;;;;222529;1260;23966;-46
2023/07/19 11:35:00;;;;;;;4.10;2.50;;;26.90;46.50;;;;;;222198;1260;22625;-46
2023/07/19 11:40:05;;;;;;;4.60;2.40;;;27.00;46.60;;;;;;222538;1253;22514;-45
2023/07/19 11:45:10;;;;;;;3.40;2.70;;;27.00;46.30;;;;;;222426;1260;24333;-45
2023/07/19 11:50:15;;;;;;;3.80;2.90;;;27.00;46.00;;;;;;222698;1260;24231;-45
2023/07/19 11:55:19;;;;;;;3.20;3.00;;;27.00;45.90;;;;;;222439;1256;22785;-47
2023/07/19 12:00:23;;;;;;;7.30;5.10;;;27.00;45.60;;;;;;222375;1254;22560;-58
2023/07/19 12:05:29;;;;;;;5.20;4.70;;;27.00;45.40;;;;;;222683;1261;24186;-54
2023/07/19 12:10:33;;;;;;;5.00;4.60;;;27.10;45.10;;;;;;222272;1253;22576;-46
2023/07/19 12:15:37;;;;;;;4.70;4.30;;;27.20;45.10;;;;;;222527;1260;23876;-45
2023/07/19 12:20:43;;;;;;;4.90;4.40;;;27.30;45.30;;;;;;222532;1266;23943;-45
2023/07/19 12:25:48;;;;;;;4.60;4.00;;;27.20;45.40;;;;;;222769;1260;22515;-49
2023/07/19 12:30:52;;;;;;;3.70;3.30;;;27.20;45.30;;;;;;222666;1263;22519;-47
2023/07/19 12:35:56;;;;;;;5.40;2.80;;;26.70;43.90;;;;;;222537;1260;22510;-46
2023/07/19 12:41:00;;;;;;;2.50;2.30;;;26.70;42.80;;;;;;222440;1260;24192;-46
2023/07/19 12:46:05;;;;;;;2.40;2.20;;;26.70;42.00;;;;;;222539;1267;22770;-47
2023/07/19 12:51:09;;;;;;;2.70;2.40;;;26.70;41.30;;;;;;222477;1262;23876;-46
2023/07/19 12:56:15;;;;;;;4.30;2.50;;;26.70;41.60;;;;;;222646;1267;24282;-46
2023/07/19 13:01:19;;;;;;;4.00;2.30;;;26.90;41.90;;;;;;222356;1264;24055;-46
2023/07/19 13:06:24;;;;;;;6.30;2.10;;;26.90;41.80;;;;;;222517;1251;22561;-51
2023/07/19 13:11:30;;;;;;;4.10;2.50;;;26.80;42.20;;;;;;222526;1257;22512;-46
2023/07/19 13:16:35;;;;;;;2.80;2.30;;;26.70;41.70;;;;;;222582;1263;23911;-49
2023/07/19 13:21:39;;;;;;;6.60;2.70;;;26.90;41.00;;;;;;222431;1260;23908;-46
2023/07/19 13:26:43;;;;;;;2.70;2.30;;;26.90;40.60;;;;;;222662;1254;24206;-48
2023/07/19 13:31:48;;;;;;;6.20;2.20;;;26.80;40.50;;;;;;222161;1266;22637;-46
2023/07/19 13:36:52;;;;;;;3.70;2.10;;;26.90;39.80;;;;;;222258;1252;22553;-44
2023/07/19 13:41:58;;;;;;;7.70;2.10;;;26.90;39.90;;;;;;222249;1251;25418;-53
2023/07/19 13:47:02;;;;;;;4.80;2.00;;;26.90;39.80;;;;;;222646;1260;23880;-54
2023/07/19 13:52:06;;;;;;;4.10;2.30;;;26.90;39.60;;;;;;222226;1259;22608;-49
2023/07/19 13:57:10;;;;;;;2.20;2.00;;;27.00;39.90;;;;;;222285;1256;22504;-47
2023/07/19 14:02:14;;;;;;;1.70;1.60;;;27.00;39.20;;;;;;222600;1260;22527;-49
2023/07/19 14:07:19;;;;;;;1.80;1.70;;;27.00;38.30;;;;;;222317;1260;22638;-51
2023/07/19 14:12:23;;;;;;;3.80;2.00;;;27.10;38.60;;;;;;222551;1263;22546;-52
2023/07/19 14:17:40;;;;;;;2.80;2.00;;;27.20;39.70;;;;;;230126;1263;294238;-49
2023/07/19 14:22:44;;;;;;;4.50;1.70;;;27.30;39.00;;;;;;226428;1267;22624;-52
2023/07/19 14:27:48;;;;;;;2.50;1.70;;;27.40;38.90;;;;;;225872;1260;22519;-53
2023/07/19 14:32:53;;;;;;;4.60;1.60;;;27.40;37.70;;;;;;222565;1253;22515;-53
2023/07/19 14:37:57;;;;;;;2.70;1.50;;;27.20;38.50;;;;;;222206;1267;22507;-54
2023/07/19 14:43:01;;;;;;;3.70;1.60;;;27.00;36.80;;;;;;222618;1260;22508;-56
2023/07/19 14:48:05;;;;;;;3.30;1.70;;;27.10;36.00;;;;;;222416;1246;24343;-54
2023/07/19 14:53:10;;;;;;;1.70;1.60;;;27.00;36.50;;;;;;222625;1253;24195;-53
2023/07/19 14:58:14;;;;;;;3.70;1.60;;;27.10;35.80;;;;;;224035;1260;25516;-53
2023/07/19 15:03:18;;;;;;;1.90;1.60;;;27.10;36.60;;;;;;222637;1257;22507;-54
2023/07/19 15:08:25;;;;;;;6.70;1.70;;;27.10;36.20;;;;;;222528;1256;22508;-52
2023/07/19 15:13:29;;;;;;;3.90;1.70;;;27.20;36.00;;;;;;222073;1260;22505;-54
2023/07/19 15:18:34;;;;;;;1.90;1.70;;;27.30;37.00;;;;;;222480;1260;25255;-54
2023/07/19 15:23:38;;;;;;;3.60;2.10;;;27.20;36.10;;;;;;222248;1253;22557;-52
2023/07/19 15:28:52;;;;;;;2.10;1.50;;;27.30;36.50;;;;;;222606;1244;22593;-55
2023/07/19 15:33:56;;;;;;;4.60;1.80;;;27.40;37.20;;;;;;221996;1254;22547;-50
2023/07/19 15:39:02;;;;;;;5.10;1.50;;;27.30;36.70;;;;;;222248;1255;24289;-48
2023/07/19 15:44:08;;;;;;;2.90;1.90;;;27.30;36.10;;;;;;224497;1260;23895;-51
2023/07/19 15:49:34;;;;;;;4.60;1.70;;;27.30;36.30;;;;;;230551;1267;22202;-48
2023/07/19 15:54:38;;;;;;;5.50;2.40;;;27.40;35.50;;;;;;230229;1264;22128;-49
2023/07/19 15:59:42;;;;;;;4.60;2.20;;;27.40;36.00;;;;;;223592;1260;22641;-50
2023/07/19 16:04:46;;;;;;;2.50;2.30;;;27.40;36.10;;;;;;222290;1253;22533;-49
2023/07/19 16:09:50;;;;;;;4.70;1.90;;;27.30;37.70;;;;;;222370;1256;22508;-48
2023/07/19 16:14:55;;;;;;;2.90;2.00;;;27.20;37.30;;;;;;222362;1247;22514;-46
2023/07/19 16:19:59;;;;;;;3.50;2.20;;;27.20;37.20;;;;;;222623;1257;22554;-50
2023/07/19 16:25:04;;;;;;;4.80;2.10;;;27.00;37.20;;;;;;222275;1258;22612;-47
2023/07/19 16:30:09;;;;;;;4.70;2.00;;;27.20;37.50;;;;;;230546;1263;22200;-48
2023/07/19 16:35:14;;;;;;;3.80;2.30;;;27.50;37.30;;;;;;226244;1260;22504;-50
2023/07/19 16:40:19;;;;;;;2.20;2.00;;;27.50;37.30;;;;;;222590;1256;24317;-48
2023/07/19 16:45:24;;;;;;;6.20;2.50;;;27.40;37.50;;;;;;222385;1260;22625;-51
2023/07/19 16:50:29;;;;;;;6.70;2.30;;;27.30;37.80;;;;;;222721;1253;25324;-53
2023/07/19 16:55:33;;;;;;;6.20;1.90;;;27.30;38.10;;;;;;222436;1260;22508;-46
2023/07/19 17:00:39;;;;;;;5.40;2.40;;;27.30;38.70;;;;;;222565;1260;22615;-46
2023/07/19 17:05:43;;;;;;;7.20;1.80;;;27.30;39.20;;;;;;220941;1271;22521;-48
2023/07/19 17:10:47;;;;;;;2.00;1.90;;;27.40;39.10;;;;;;228992;1268;22255;-48
2023/07/19 17:15:51;;;;;;;2.20;1.70;;;27.60;38.80;;;;;;228912;1266;22317;-49
2023/07/19 17:20:56;;;;;;;4.50;2.00;;;27.70;38.70;;;;;;223459;1266;24244;-50
2023/07/19 17:26:00;;;;;;;2.80;2.10;;;27.70;38.70;;;;;;223009;1264;22511;-52
2023/07/19 17:31:05;;;;;;;2.20;1.80;;;27.50;39.20;;;;;;221335;1262;22536;-51
2023/07/19 17:36:12;;;;;;;4.00;2.50;;;27.40;39.60;;;;;;221308;1259;23928;-47
2023/07/19 17:41:18;;;;;;;2.60;2.00;;;27.40;39.70;;;;;;221276;1269;24199;-48
2023/07/19 17:46:23;;;;;;;2.50;2.00;;;27.40;40.00;;;;;;221418;1259;25230;-49
2023/07/19 17:51:28;;;;;;;3.50;1.90;;;27.30;40.20;;;;;;222444;1251;22559;-48
2023/07/19 17:56:33;;;;;;;4.30;2.10;;;27.30;40.70;;;;;;222311;1260;22508;-51
2023/07/19 18:01:38;;;;;;;1.70;1.60;;;27.30;40.60;;;;;;222623;1244;25432;-52
2023/07/19 18:06:43;;;;;;;2.10;1.70;;;27.30;40.80;;;;;;222425;1263;22532;-49
2023/07/19 18:11:49;;;;;;;1.70;1.60;;;27.20;40.90;;;;;;222475;1254;22677;-49
2023/07/19 18:16:54;;;;;;;3.40;2.00;;;27.00;40.90;;;;;;222787;1263;22648;-51
2023/07/19 18:21:59;;;;;;;3.00;2.10;;;27.00;41.80;;;;;;222904;1260;22519;-48
2023/07/19 18:27:07;;;;;;;2.60;2.00;;;26.90;41.70;;;;;;222644;1267;25328;-51
2023/07/19 18:32:13;;;;;;;4.30;2.10;;;26.90;41.90;;;;;;222817;1265;25450;-50
2023/07/19 18:37:17;;;;;;;3.80;2.00;;;26.90;41.90;;;;;;222753;1251;22562;-49
2023/07/19 18:42:24;;;;;;;4.20;1.90;;;26.80;42.30;;;;;;222550;1258;25590;-47
2023/07/19 18:47:30;;;;;;;2.80;2.00;;;26.90;42.00;;;;;;222517;1267;22529;-52
2023/07/19 18:52:34;;;;;;;2.40;2.10;;;26.90;42.60;;;;;;222895;1254;22992;-52
2023/07/19 18:57:39;;;;;;;3.20;2.00;;;26.90;42.20;;;;;;222682;1260;25623;-51
2023/07/19 19:02:44;;;;;;;7.90;2.30;;;27.00;42.40;;;;;;222466;1256;24048;-50
2023/07/19 19:07:50;;;;;;;3.20;2.10;;;27.00;42.50;;;;;;222740;1251;22630;-47
2023/07/19 19:12:55;;;;;;;2.40;2.10;;;26.90;42.50;;;;;;222768;1264;22729;-52
2023/07/19 19:18:00;;;;;;;2.00;1.70;;;27.00;42.70;;;;;;222626;1257;22524;-51
2023/07/19 19:23:10;;;;;;;2.10;1.90;;;26.90;43.10;;;;;;222112;1267;22636;-48
2023/07/19 19:28:17;;;;;;;2.50;2.30;;;27.00;42.90;;;;;;222562;1244;23261;-47
2023/07/19 19:33:24;;;;;;;2.60;2.20;;;26.90;43.00;;;;;;222732;1254;24282;-50
2023/07/19 19:38:29;;;;;;;2.80;2.00;;;26.90;43.20;;;;;;222695;1254;22679;-48
2023/07/19 19:43:35;;;;;;;2.60;2.40;;;26.90;43.60;;;;;;222922;1260;24242;-50
2023/07/19 19:48:39;;;;;;;2.20;2.00;;;26.90;43.40;;;;;;222649;1263;25268;-51
2023/07/19 19:53:44;;;;;;;2.30;2.00;;;26.90;43.80;;;;;;222566;1261;25323;-49
2023/07/19 19:58:51;;;;;;;2.60;2.00;;;26.80;43.70;;;;;;222742;1266;25210;-48
2023/07/19 20:03:58;;;;;;;3.70;2.50;;;26.80;43.80;;;;;;222630;1260;22500;-50
2023/07/19 20:09:11;;;;;;;2.60;1.80;;;26.80;44.00;;;;;;222671;1260;24157;-49
2023/07/19 20:14:16;;;;;;;4.80;2.30;;;26.80;44.10;;;;;;222588;1258;22517;-49
2023/07/19 20:19:23;;;;;;;2.20;2.00;;;26.80;44.60;;;;;;222757;1264;22533;-51
2023/07/19 20:24:33;;;;;;;2.50;2.20;;;26.80;44.70;;;;;;222721;1260;22548;-51
2023/07/19 20:29:54;;;;;;;5.20;2.20;;;26.70;44.30;;;;;;222915;1266;22977;-52
2023/07/19 20:35:01;;;;;;;3.40;2.00;;;26.80;44.30;;;;;;222818;1257;23992;-51
2023/07/19 20:40:08;;;;;;;2.50;2.20;;;26.80;44.40;;;;;;222773;1263;25210;-49
2023/07/19 20:45:16;;;;;;;2.10;1.90;;;26.70;44.70;;;;;;222965;1260;22499;-53
2023/07/19 20:50:26;;;;;;;3.60;1.50;;;26.70;44.80;;;;;;222299;1257;22524;-52
2023/07/19 20:55:31;;;;;;;3.50;2.20;;;26.70;44.90;;;;;;222535;1265;22507;-50
2023/07/19 21:00:36;;;;;;;3.30;2.10;;;26.60;45.50;;;;;;222796;1254;24203;-52
2023/07/19 21:05:41;;;;;;;2.30;2.10;;;26.70;45.10;;;;;;222723;1260;23896;-47
2023/07/19 21:10:45;;;;;;;3.40;2.40;;;26.70;45.20;;;;;;222618;1267;22602;-51
2023/07/19 21:15:49;;;;;;;3.10;2.50;;;26.60;45.20;;;;;;222777;1260;22537;-47
2023/07/19 21:20:53;;;;;;;2.50;2.30;;;26.60;45.30;;;;;;222747;1268;22629;-47
2023/07/19 21:25:57;;;;;;;3.80;2.40;;;26.60;45.20;;;;;;222600;1260;22591;-50
2023/07/19 21:31:01;;;;;;;2.90;2.70;;;26.60;45.90;;;;;;222737;1267;24176;-43
2023/07/19 21:36:06;;;;;;;8.20;2.60;;;26.60;45.60;;;;;;222962;1267;22527;-46
2023/07/19 21:41:11;;;;;;;2.80;2.50;;;26.50;45.70;;;;;;223473;1250;24228;-50
2023/07/19 21:46:15;;;;;;;7.40;2.60;;;26.60;46.10;;;;;;223019;1254;24180;-45
2023/07/19 21:51:20;;;;;;;8.40;2.80;;;26.70;45.70;;;;;;223087;1251;24264;-46
2023/07/19 21:56:25;;;;;;;2.60;2.30;;;26.70;46.10;;;;;;223274;1256;25211;-49
2023/07/19 22:01:31;;;;;;;7.20;2.80;;;26.80;46.20;;;;;;223401;1260;22546;-48
2023/07/19 22:06:35;;;;;;;4.20;2.40;;;26.80;46.10;;;;;;223247;1261;22530;-47
2023/07/19 22:11:40;;;;;;;3.70;3.00;;;26.80;46.40;;;;;;223067;1263;23885;-48
2023/07/19 22:16:48;;;;;;;4.70;2.50;;;26.80;46.30;;;;;;222985;1263;22511;-48
2023/07/19 22:21:53;;;;;;;3.30;2.40;;;26.90;46.30;;;;;;222625;1263;22520;-48
2023/07/19 22:26:57;;;;;;;2.70;2.50;;;26.80;47.00;;;;;;222470;1250;22557;-52
2023/07/19 22:32:01;;;;;;;2.60;2.40;;;26.80;47.20;;;;;;222626;1265;26551;-50
2023/07/19 22:37:05;;;;;;;4.30;2.90;;;26.80;46.70;;;;;;222792;1261;24289;-46
2023/07/19 22:42:10;;;;;;;4.20;2.50;;;26.70;46.50;;;;;;222474;1261;24353;-47
2023/07/19 22:47:15;;;;;;;2.50;2.30;;;26.80;47.20;;;;;;222880;1260;22630;-47
2023/07/19 22:52:20;;;;;;;4.50;2.80;;;26.80;46.80;;;;;;222804;1254;22584;-46
2023/07/19 22:57:24;;;;;;;4.70;3.00;;;26.60;47.30;;;;;;222607;1267;22623;-48
2023/07/19 23:02:28;;;;;;;4.30;2.70;;;26.60;47.30;;;;;;222518;1244;24193;-46
2023/07/19 23:07:33;;;;;;;3.20;2.70;;;26.70;47.70;;;;;;222724;1264;22518;-48
2023/07/19 23:12:38;;;;;;;4.80;2.80;;;26.50;47.80;;;;;;222678;1266;25351;-46
2023/07/19 23:17:43;;;;;;;2.50;2.30;;;26.50;48.00;;;;;;222682;1260;24183;-45
2023/07/19 23:22:47;;;;;;;2.50;2.20;;;26.50;48.20;;;;;;222563;1264;24202;-46
2023/07/19 23:27:53;;;;;;;2.50;2.30;;;26.50;48.40;;;;;;222711;1245;22519;-48
2023/07/19 23:32:58;;;;;;;2.60;2.30;;;26.50;48.70;;;;;;222870;1261;22511;-45
2023/07/19 23:38:03;;;;;;;5.60;3.00;;;26.50;48.80;;;;;;222680;1263;24275;-46
2023/07/19 23:43:07;;;;;;;2.50;2.30;;;26.60;49.00;;;;;;222854;1263;22525;-47
2023/07/19 23:48:12;;;;;;;3.30;2.30;;;26.70;49.50;;;;;;222641;1264;22618;-46
2023/07/19 23:53:16;;;;;;;2.60;2.20;;;26.60;48.80;;;;;;222484;1261;25439;-46
2023/07/19 23:58:21;;;;;;;3.00;2.20;;;26.50;49.10;;;;;;222683;1260;22507;-46
